Time;durP1;ratioP1;P1;durP2;ratioP2;P2;SDS_P1;SDS_P2;PMS_P1;PMS_P2;Temp;Humidity;BMP_temperature;BMP_pressure;BME280_temperature;BME280_humidity;BME280_pressure;Samples;Min_cycle;Max_cycle;Signal;HPM_P1;HPM_P2
2021/07/18 00:02:07;;;;;;;24.10;11.05;;;;;;;19.80;100.00;99660.23;1685017;84;21075;-72
2021/07/18 00:04:34;;;;;;;20.27;11.70;;;;;;;19.82;100.00;99656.45;1724843;82;21552;-72
2021/07/18 00:07:04;;;;;;;17.02;9.63;;;;;;;19.84;100.00;99653.17;1712157;83;21120;-72
2021/07/18 00:09:33;;;;;;;20.95;10.03;;;;;;;19.86;100.00;99655.73;1712252;83;21057;-72
2021/07/18 00:12:01;;;;;;;18.95;10.15;;;;;;;19.84;100.00;99657.19;1710614;83;21623;-72
2021/07/18 00:14:28;;;;;;;14.53;9.90;;;;;;;19.85;100.00;99652.68;1670559;85;21092;-72
2021/07/18 00:16:55;;;;;;;24.77;13.08;;;;;;;19.83;100.00;99640.80;1670309;85;21084;-72
2021/07/18 00:19:22;;;;;;;19.67;12.20;;;;;;;19.84;100.00;99637.64;1665845;86;21096;-70
2021/07/18 00:21:50;;;;;;;18.73;10.65;;;;;;;19.84;100.00;99635.80;1665577;86;21172;-73
2021/07/18 00:24:17;;;;;;;18.80;10.82;;;;;;;19.85;100.00;99638.86;1670313;85;21148;-72
2021/07/18 00:26:45;;;;;;;17.85;9.30;;;;;;;19.87;100.00;99648.90;1670155;85;21631;-73
2021/07/18 00:29:12;;;;;;;17.27;9.43;;;;;;;19.86;100.00;99649.89;1670649;85;21584;-73
2021/07/18 00:31:39;;;;;;;17.45;10.30;;;;;;;19.85;100.00;99647.34;1665819;86;21057;-72
2021/07/18 00:34:06;;;;;;;20.52;10.60;;;;;;;19.81;100.00;99636.08;1670570;85;21085;-72
2021/07/18 00:36:33;;;;;;;20.80;11.05;;;;;;;19.79;100.00;99638.02;1686179;84;22452;-72
2021/07/18 00:39:01;;;;;;;19.02;10.98;;;;;;;19.76;100.00;99636.95;1669031;86;21110;-72
2021/07/18 00:41:29;;;;;;;17.98;11.40;;;;;;;19.73;100.00;99633.17;1732327;82;21032;-73
2021/07/18 00:43:57;;;;;;;22.00;11.50;;;;;;;19.73;100.00;99627.83;1732420;82;21534;-73
2021/07/18 00:46:24;;;;;;;15.05;10.60;;;;;;;19.73;99.90;99644.36;1669121;86;21113;-75
2021/07/18 00:48:50;;;;;;;18.02;10.48;;;;;;;19.73;99.88;99645.20;1669412;86;21129;-73
2021/07/18 00:51:18;;;;;;;21.30;12.23;;;;;;;19.74;100.00;99640.23;1668896;86;21095;-74
2021/07/18 00:53:45;;;;;;;18.37;9.90;;;;;;;19.72;99.68;99637.33;1669527;86;22192;-71
2021/07/18 00:56:12;;;;;;;17.90;11.25;;;;;;;19.72;100.00;99634.17;1732229;82;21086;-72
2021/07/18 00:58:40;;;;;;;17.50;11.43;;;;;;;19.69;100.00;99633.94;1669211;85;21094;-70
2021/07/18 01:01:08;;;;;;;18.57;11.22;;;;;;;19.67;100.00;99637.69;1669133;86;22079;-72
2021/07/18 01:03:36;;;;;;;23.50;11.78;;;;;;;19.65;100.00;99635.63;1730667;82;21063;-72
2021/07/18 01:06:03;;;;;;;20.27;12.15;;;;;;;19.62;100.00;99633.19;1670762;85;21531;-71
2021/07/18 01:08:30;;;;;;;20.62;13.28;;;;;;;19.62;100.00;99621.16;1665860;86;21121;-70
2021/07/18 01:10:57;;;;;;;28.38;14.40;;;;;;;19.61;100.00;99612.80;1651069;85;21080;-71
2021/07/18 01:13:24;;;;;;;26.10;15.45;;;;;;;19.62;100.00;99611.81;1683602;83;21793;-74
2021/07/18 01:15:53;;;;;;;26.17;16.02;;;;;;;19.65;100.00;99609.75;1694234;84;21081;-74
2021/07/18 01:18:20;;;;;;;20.40;13.50;;;;;;;19.69;100.00;99609.02;1694134;84;21038;-74
2021/07/18 01:20:47;;;;;;;20.50;13.25;;;;;;;19.72;100.00;99605.28;1686184;84;21085;-73
2021/07/18 01:23:13;;;;;;;24.57;12.18;;;;;;;19.71;100.00;99600.39;1666155;86;21092;-75
2021/07/18 01:25:41;;;;;;;18.75;11.90;;;;;;;19.68;100.00;99597.96;1666076;86;21065;-76
2021/07/18 01:28:10;;;;;;;17.05;11.05;;;;;;;19.66;100.00;99606.09;1665782;86;21080;-74
2021/07/18 01:30:38;;;;;;;18.87;11.95;;;;;;;19.65;100.00;99606.24;1666042;86;21113;-74
2021/07/18 01:33:06;;;;;;;18.85;11.45;;;;;;;19.63;100.00;99610.86;1666173;86;21674;-75
2021/07/18 01:35:33;;;;;;;22.98;11.73;;;;;;;19.64;100.00;99611.20;1665981;86;21149;-73
2021/07/18 01:38:00;;;;;;;20.95;11.40;;;;;;;19.60;100.00;99610.63;1666042;86;21116;-74
2021/07/18 01:40:27;;;;;;;21.45;13.50;;;;;;;19.63;100.00;99604.18;1666010;86;21120;-75
2021/07/18 01:42:55;;;;;;;20.90;12.73;;;;;;;19.63;100.00;99604.18;1666081;86;21057;-72
2021/07/18 01:45:23;;;;;;;15.58;9.53;;;;;;;19.63;100.00;99610.86;1666076;86;21136;-73
2021/07/18 01:47:50;;;;;;;23.05;12.90;;;;;;;19.62;100.00;99617.16;1666207;86;21813;-73
2021/07/18 01:50:17;;;;;;;20.57;10.30;;;;;;;19.60;100.00;99616.44;1666210;86;21129;-71
2021/07/18 01:52:44;;;;;;;23.62;12.60;;;;;;;19.60;100.00;99623.11;1666067;86;22182;-72
2021/07/18 01:55:13;;;;;;;23.18;12.93;;;;;;;19.60;100.00;99620.44;1666158;86;21065;-73
2021/07/18 01:57:40;;;;;;;20.88;10.50;;;;;;;19.61;100.00;99616.81;1666274;84;21034;-73
2021/07/18 02:00:09;;;;;;;18.20;12.47;;;;;;;19.60;100.00;99619.10;1678406;85;21125;-74
2021/07/18 02:02:42;;;;;;;21.00;13.40;;;;;;;19.60;100.00;99620.44;1666129;86;21822;-75
2021/07/18 02:05:11;;;;;;;24.67;13.75;;;;;;;19.62;100.00;99627.84;1678847;85;21089;-76
2021/07/18 02:07:38;;;;;;;21.35;14.40;;;;;;;19.61;100.00;99627.50;1666425;86;21089;-77
2021/07/18 02:10:09;;;;;;;23.10;13.15;;;;;;;19.59;100.00;99626.27;1678602;85;21575;-73
2021/07/18 02:12:38;;;;;;;25.17;13.85;;;;;;;19.56;100.00;99622.53;1675387;83;21903;-74
2021/07/18 02:15:09;;;;;;;28.50;14.65;;;;;;;19.54;100.00;99619.14;1709793;83;21132;-73
2021/07/18 02:17:36;;;;;;;29.10;15.05;;;;;;;19.54;100.00;99610.28;1708891;83;21073;-73
2021/07/18 02:20:10;;;;;;;28.70;15.70;;;;;;;19.56;100.00;99609.67;1700564;84;21086;-73
2021/07/18 02:22:46;;;;;;;25.35;14.58;;;;;;;19.60;100.00;99609.76;1710002;83;21103;-71
2021/07/18 02:25:17;;;;;;;24.15;14.03;;;;;;;19.64;100.00;99612.54;1699232;84;22145;-70
2021/07/18 02:27:44;;;;;;;29.42;14.80;;;;;;;19.66;100.00;99611.44;1708977;83;21134;-72
2021/07/18 02:30:17;;;;;;;23.00;13.80;;;;;;;19.67;100.00;99613.15;1708708;83;21639;-71
2021/07/18 02:32:44;;;;;;;22.60;13.95;;;;;;;19.69;100.00;99615.70;1708953;83;21065;-72
2021/07/18 02:35:14;;;;;;;24.45;13.43;;;;;;;19.71;100.00;99617.76;1699178;84;21128;-72
2021/07/18 02:37:41;;;;;;;30.43;13.25;;;;;;;19.73;100.00;99622.49;1683603;85;21077;-72
2021/07/18 02:40:09;;;;;;;27.93;15.03;;;;;;;19.76;100.00;99615.58;1709007;83;21344;-70
2021/07/18 02:42:37;;;;;;;26.05;13.43;;;;;;;19.80;100.00;99614.32;1680374;85;21072;-70
2021/07/18 02:45:10;;;;;;;18.57;11.85;;;;;;;19.82;100.00;99620.88;1699655;84;21132;-71
2021/07/18 02:47:37;;;;;;;23.87;14.23;;;;;;;19.86;100.00;99621.84;1708949;83;21109;-73
2021/07/18 02:50:11;;;;;;;21.17;14.25;;;;;;;19.89;100.00;99633.59;1699414;84;21603;-72
2021/07/18 02:52:38;;;;;;;28.62;16.23;;;;;;;19.98;100.00;99633.81;1709023;83;21323;-71
2021/07/18 02:55:06;;;;;;;31.55;16.85;;;;;;;20.04;100.00;99623.45;1699401;84;21607;-71
2021/07/18 02:57:33;;;;;;;23.62;15.65;;;;;;;20.10;100.00;99622.91;1709086;83;21054;-71
2021/07/18 03:00:00;;;;;;;26.90;17.27;;;;;;;20.18;100.00;99614.75;1699493;84;21050;-71
2021/07/18 03:02:27;;;;;;;26.23;16.50;;;;;;;20.24;100.00;99611.54;1682055;85;21568;-71
2021/07/18 03:04:55;;;;;;;31.90;17.50;;;;;;;20.31;100.00;99611.36;1684076;83;21155;-74
2021/07/18 03:07:22;;;;;;;31.33;17.42;;;;;;;20.40;100.00;99611.07;1697870;84;21065;-74
2021/07/18 03:09:49;;;;;;;34.50;17.32;;;;;;;20.47;100.00;99606.39;1679174;85;21086;-74
2021/07/18 03:12:16;;;;;;;34.18;17.17;;;;;;;20.57;100.00;99609.17;1698131;84;21038;-69
2021/07/18 03:14:42;;;;;;;30.37;16.07;;;;;;;20.66;100.00;99605.69;1655507;84;21133;-75
2021/07/18 03:17:12;;;;;;;27.00;16.00;;;;;;;20.76;100.00;99608.89;1644600;85;21061;-74
2021/07/18 03:19:40;;;;;;;34.30;17.20;;;;;;;20.87;100.00;99610.98;1730238;82;21066;-68
2021/07/18 03:22:07;;;;;;;24.45;14.60;;;;;;;20.98;100.00;99607.36;1722533;82;21046;-73
2021/07/18 03:24:34;;;;;;;30.45;15.32;;;;;;;21.10;99.42;99614.30;1655225;85;21084;-71
2021/07/18 03:27:01;;;;;;;29.90;15.15;;;;;;;21.22;99.40;99615.52;1675006;84;21084;-71
2021/07/18 03:29:29;;;;;;;26.90;13.18;;;;;;;21.33;97.29;99611.39;1684015;84;21136;-71
2021/07/18 03:31:56;;;;;;;21.70;14.13;;;;;;;21.45;97.63;99607.63;1686732;84;21027;-69
2021/07/18 03:34:23;;;;;;;23.85;12.80;;;;;;;21.58;96.20;99604.69;1659337;85;21113;-71
2021/07/18 03:36:49;;;;;;;30.43;15.68;;;;;;;21.74;95.95;99604.09;1675024;84;21571;-72
2021/07/18 03:39:16;;;;;;;25.60;14.40;;;;;;;21.89;96.22;99605.88;1654850;85;21407;-70
2021/07/18 03:41:43;;;;;;;18.00;11.28;;;;;;;22.05;93.12;99606.64;1681586;84;21134;-70
2021/07/18 03:44:10;;;;;;;27.42;14.33;;;;;;;22.22;92.67;99608.59;1680928;84;21148;-70
2021/07/18 03:46:38;;;;;;;32.23;14.80;;;;;;;22.39;92.25;99607.03;1652312;85;21611;-70
2021/07/18 03:49:05;;;;;;;29.32;15.03;;;;;;;22.57;91.29;99601.75;1659722;85;21144;-70
2021/07/18 03:51:32;;;;;;;26.02;14.80;;;;;;;22.78;91.33;99596.99;1653882;85;22097;-71
2021/07/18 03:54:01;;;;;;;18.67;9.43;;;;;;;22.97;90.35;99601.41;1650162;85;22346;-69
2021/07/18 03:56:28;;;;;;;33.30;15.65;;;;;;;23.19;84.67;99602.89;1647167;85;21385;-70
2021/07/18 03:58:55;;;;;;;22.90;14.55;;;;;;;23.42;85.52;99597.94;1644864;85;21068;-70
2021/07/18 04:01:22;;;;;;;25.55;14.68;;;;;;;23.63;81.99;99593.59;1662283;85;21114;-69
2021/07/18 04:03:49;;;;;;;28.20;15.78;;;;;;;23.91;82.85;99588.16;1681154;85;21081;-69
2021/07/18 04:06:16;;;;;;;24.60;14.63;;;;;;;24.15;81.89;99583.95;1688548;84;21152;-69
2021/07/18 04:08:44;;;;;;;28.27;15.32;;;;;;;24.32;79.65;99577.69;1672585;84;21739;-71
2021/07/18 04:11:12;;;;;;;28.30;16.15;;;;;;;24.51;81.21;99575.81;1675173;84;21112;-70
2021/07/18 04:13:40;;;;;;;21.50;15.85;;;;;;;24.76;79.29;99572.23;1718039;82;21044;-70
2021/07/18 04:16:06;;;;;;;31.48;16.67;;;;;;;25.08;78.32;99580.09;1713701;82;21620;-70
2021/07/18 04:18:33;;;;;;;25.50;15.75;;;;;;;25.35;78.37;99582.20;1678429;85;21136;-69
2021/07/18 04:21:01;;;;;;;29.57;17.15;;;;;;;25.63;76.83;99576.87;1682071;84;21069;-69
2021/07/18 04:23:28;;;;;;;27.85;16.17;;;;;;;25.94;76.06;99582.45;1672167;84;21516;-69
2021/07/18 04:25:55;;;;;;;30.70;17.15;;;;;;;26.21;73.87;99576.88;1723885;82;21094;-70
2021/07/18 04:28:22;;;;;;;27.55;15.48;;;;;;;26.40;73.37;99581.88;1720670;82;21025;-70
2021/07/18 04:30:49;;;;;;;28.87;16.42;;;;;;;26.62;72.94;99579.48;1678206;84;21128;-71
2021/07/18 04:33:17;;;;;;;24.02;15.95;;;;;;;26.88;71.76;99584.64;1665848;84;21595;-70
2021/07/18 04:35:44;;;;;;;24.80;16.32;;;;;;;27.13;70.97;99586.72;1668605;84;21041;-69
2021/07/18 04:38:11;;;;;;;23.10;14.87;;;;;;;27.34;68.95;99591.01;1683309;84;21101;-71
2021/07/18 04:40:39;;;;;;;26.68;16.05;;;;;;;27.50;66.22;99595.98;1684935;84;21153;-70
2021/07/18 04:43:05;;;;;;;26.48;15.85;;;;;;;27.64;66.92;99593.85;1669778;85;21130;-69
2021/07/18 04:45:33;;;;;;;28.62;15.65;;;;;;;27.69;64.51;99596.85;1668918;85;21081;-71
2021/07/18 04:48:01;;;;;;;24.02;15.90;;;;;;;27.76;65.43;99595.10;1731879;82;21078;-71
2021/07/18 04:50:29;;;;;;;26.20;15.70;;;;;;;27.91;65.74;99594.37;1721038;82;21048;-70
2021/07/18 04:52:56;;;;;;;28.23;16.15;;;;;;;28.08;65.48;99589.13;1729229;82;21050;-69
2021/07/18 04:55:23;;;;;;;26.73;15.40;;;;;;;28.35;64.82;99586.84;1716829;82;21130;-70
2021/07/18 04:57:50;;;;;;;28.87;16.35;;;;;;;28.60;63.38;99599.13;1724316;82;21037;-71
2021/07/18 05:00:20;;;;;;;25.50;16.35;;;;;;;28.86;62.73;99595.09;1712088;83;21540;-73
2021/07/18 05:02:47;;;;;;;24.50;13.20;;;;;;;29.13;62.08;99594.95;1723833;82;21182;-69
2021/07/18 05:05:15;;;;;;;23.27;15.40;;;;;;;29.39;58.13;99599.83;1742040;82;21106;-69
2021/07/18 05:07:55;;;;;;;28.10;17.05;;;;;;;29.61;58.27;99595.77;1741454;82;21774;-70
2021/07/18 05:10:24;;;;;;;29.70;16.15;;;;;;;29.79;57.65;99593.47;1741138;82;21571;-69
2021/07/18 05:12:54;;;;;;;27.27;16.73;;;;;;;29.93;55.49;99594.95;1742130;82;21026;-70
2021/07/18 05:15:22;;;;;;;29.55;16.48;;;;;;;30.05;56.74;99588.81;1735267;82;21037;-70
2021/07/18 05:17:49;;;;;;;30.72;16.40;;;;;;;30.16;54.19;99590.16;1729718;82;21473;-70
2021/07/18 05:20:21;;;;;;;24.40;15.45;;;;;;;30.24;55.31;99598.14;1727506;82;21133;-70
2021/07/18 05:22:47;;;;;;;27.00;16.32;;;;;;;30.27;55.73;99598.29;1709065;82;21094;-70
2021/07/18 05:25:14;;;;;;;26.55;16.07;;;;;;;30.38;54.31;99605.06;1720132;82;21024;-71
2021/07/18 05:27:41;;;;;;;32.93;17.12;;;;;;;30.51;54.79;99599.73;1707436;82;22072;-70
2021/07/18 05:30:12;;;;;;;31.12;16.20;;;;;;;30.55;53.73;99602.87;1720808;82;21089;-72
2021/07/18 05:32:39;;;;;;;24.45;15.70;;;;;;;30.63;53.07;99604.91;1724142;82;21822;-71
2021/07/18 05:35:08;;;;;;;23.55;16.67;;;;;;;30.80;53.70;99599.14;1715270;82;21007;-71
2021/07/18 05:37:35;;;;;;;25.12;15.55;;;;;;;31.02;51.57;99593.95;1720823;82;21093;-71
2021/07/18 05:40:05;;;;;;;24.37;16.30;;;;;;;31.23;51.74;99598.95;1705807;82;21026;-71
2021/07/18 05:42:32;;;;;;;26.82;15.20;;;;;;;31.44;51.56;99602.08;1714719;82;21055;-70
2021/07/18 05:45:00;;;;;;;29.30;15.83;;;;;;;31.56;50.41;99597.20;1663024;81;25764;-71
2021/07/18 05:47:28;;;;;;;25.05;16.25;;;;;;;31.87;50.95;99589.48;1636346;86;21158;-71
2021/07/18 05:49:57;;;;;;;24.35;15.48;;;;;;;31.87;50.95;99589.48;1648844;86;21659;-71
2021/07/18 05:52:26;;;;;;;25.27;16.07;;;;;;;32.02;49.31;99586.57;1638699;86;21101;-70
2021/07/18 05:54:53;;;;;;;24.63;13.70;;;;;;;32.23;49.18;99587.70;1640658;86;21129;-70
2021/07/18 05:57:20;;;;;;;26.90;16.15;;;;;;;32.31;47.48;99588.86;1639228;86;21232;-70
2021/07/18 05:59:47;;;;;;;22.25;15.15;;;;;;;32.32;48.12;99589.69;1647293;86;21085;-71
2021/07/18 06:02:15;;;;;;;23.67;14.00;;;;;;;32.29;48.13;99584.14;1648612;85;21085;-71
2021/07/18 06:04:43;;;;;;;23.40;15.00;;;;;;;32.53;45.90;99585.91;1640185;86;21094;-70
2021/07/18 06:07:11;;;;;;;20.62;14.38;;;;;;;32.86;47.04;99586.36;1640517;86;21522;-70
2021/07/18 06:09:39;;;;;;;28.62;15.05;;;;;;;33.16;45.03;99586.67;1639834;86;21268;-71
2021/07/18 06:12:09;;;;;;;20.00;14.03;;;;;;;33.33;45.43;99584.27;1643218;86;21090;-70
2021/07/18 06:14:37;;;;;;;24.72;14.38;;;;;;;33.51;46.08;99585.73;1651471;85;21098;-71
2021/07/18 06:17:04;;;;;;;21.48;15.03;;;;;;;33.66;43.96;99596.89;1652423;86;21074;-71
2021/07/18 06:19:31;;;;;;;29.72;14.73;;;;;;;33.82;44.22;99596.36;1652629;86;21046;-71
2021/07/18 06:21:58;;;;;;;28.80;14.07;;;;;;;34.00;44.22;99589.59;1651185;86;22346;-71
2021/07/18 06:24:25;;;;;;;21.37;13.78;;;;;;;34.24;42.78;99592.05;1652982;86;21121;-70
2021/07/18 06:26:52;;;;;;;21.27;13.70;;;;;;;34.47;41.77;99592.77;1652661;86;21125;-71
2021/07/18 06:29:20;;;;;;;19.25;13.90;;;;;;;34.58;41.63;99599.91;1652287;86;21050;-71
2021/07/18 06:31:47;;;;;;;17.87;12.93;;;;;;;34.77;41.35;99598.90;1653137;86;21158;-71
2021/07/18 06:34:14;;;;;;;21.80;12.50;;;;;;;34.95;40.70;99598.57;1653026;86;21121;-70
2021/07/18 06:36:41;;;;;;;20.02;12.68;;;;;;;35.00;39.23;99598.74;1653496;86;21105;-71
2021/07/18 06:39:08;;;;;;;17.77;13.45;;;;;;;34.82;40.47;99592.20;1652304;86;21678;-70
2021/07/18 06:41:35;;;;;;;22.67;12.90;;;;;;;34.78;40.95;99590.98;1651991;85;21074;-70
2021/07/18 06:44:02;;;;;;;18.90;13.43;;;;;;;34.81;40.72;99589.69;1653359;85;30375;-70
2021/07/18 06:46:30;;;;;;;22.35;13.38;;;;;;;35.06;40.82;99590.96;1691407;83;21056;-70
2021/07/18 06:48:58;;;;;;;17.70;12.98;;;;;;;35.35;40.24;99589.89;1680289;83;21069;-71
2021/07/18 06:51:25;;;;;;;25.15;13.72;;;;;;;35.55;40.39;99593.17;1686253;85;21148;-71
2021/07/18 06:53:53;;;;;;;16.82;12.68;;;;;;;35.67;39.84;99584.48;1686247;83;21561;-73
2021/07/18 06:56:20;;;;;;;18.07;12.47;;;;;;;35.78;39.04;99590.23;1685517;83;21074;-70
2021/07/18 06:58:47;;;;;;;17.32;11.78;;;;;;;35.92;39.56;99593.05;1690969;83;21164;-71
2021/07/18 07:01:15;;;;;;;16.85;12.78;;;;;;;36.01;38.35;99590.81;1704681;83;21082;-71
2021/07/18 07:03:42;;;;;;;28.42;13.18;;;;;;;36.17;38.23;99593.38;1694378;83;21054;-70
2021/07/18 07:06:09;;;;;;;23.85;13.80;;;;;;;36.21;38.41;99593.22;1698575;83;21149;-71
2021/07/18 07:08:37;;;;;;;23.52;13.30;;;;;;;36.29;37.37;99594.24;1700704;83;21093;-72
2021/07/18 07:11:04;;;;;;;21.17;12.78;;;;;;;36.32;38.17;99592.38;1702329;83;21580;-70
2021/07/18 07:13:31;;;;;;;18.20;12.80;;;;;;;36.41;37.69;99588.20;1698514;83;21049;-70
2021/07/18 07:15:58;;;;;;;18.80;12.33;;;;;;;36.47;37.36;99589.17;1689166;83;21169;-70
2021/07/18 07:18:26;;;;;;;16.12;11.43;;;;;;;36.47;38.61;99586.44;1690187;84;21152;-70
2021/07/18 07:20:53;;;;;;;15.80;11.63;;;;;;;36.61;33.53;99589.79;1688355;84;21546;-71
2021/07/18 07:23:20;;;;;;;19.55;11.35;;;;;;;36.71;37.10;99583.14;1688349;84;21263;-71
2021/07/18 07:25:46;;;;;;;16.07;10.90;;;;;;;36.71;36.84;99589.99;1694128;84;21047;-71
2021/07/18 07:28:14;;;;;;;14.75;11.08;;;;;;;36.38;35.21;99588.70;1705919;84;21064;-70
2021/07/18 07:30:41;;;;;;;18.57;10.45;;;;;;;36.19;36.79;99588.50;1705742;84;21047;-70
2021/07/18 07:33:08;;;;;;;16.97;11.30;;;;;;;36.16;35.13;99593.10;1681953;84;21043;-71
2021/07/18 07:35:35;;;;;;;14.80;11.28;;;;;;;36.30;36.24;99593.98;1682241;84;21150;-71
2021/07/18 07:38:05;;;;;;;16.17;11.53;;;;;;;36.42;36.79;99592.63;1685123;84;21075;-71
2021/07/18 07:40:30;;;;;;;15.15;11.33;;;;;;;36.69;35.81;99595.71;1687960;84;21142;-71
2021/07/18 07:42:58;;;;;;;17.27;10.78;;;;;;;36.74;36.24;99594.98;1681443;84;21069;-71
2021/07/18 07:45:25;;;;;;;18.05;11.18;;;;;;;36.82;35.55;99594.63;1679362;84;21054;-70
2021/07/18 07:47:52;;;;;;;15.75;10.35;;;;;;;36.96;34.21;99596.56;1675019;85;21122;-71
2021/07/18 07:50:19;;;;;;;14.87;9.90;;;;;;;37.05;33.88;99594.27;1695481;84;20984;-70
2021/07/18 07:52:47;;;;;;;15.58;10.20;;;;;;;37.14;33.12;99591.47;1705683;84;21055;-71
2021/07/18 07:55:14;;;;;;;14.87;11.05;;;;;;;37.14;34.94;99598.33;1705737;84;21075;-72
2021/07/18 07:57:41;;;;;;;14.50;10.40;;;;;;;37.05;34.68;99601.96;1684636;84;21563;-70
2021/07/18 08:00:10;;;;;;;14.70;10.60;;;;;;;37.11;33.29;99596.05;1669345;84;21145;-70
2021/07/18 08:02:42;;;;;;;15.60;9.45;;;;;;;37.45;33.96;99601.66;1705988;84;21035;-72
2021/07/18 08:05:09;;;;;;;12.25;9.28;;;;;;;37.81;32.44;99601.79;1682240;84;21059;-73
2021/07/18 08:07:38;;;;;;;13.60;9.65;;;;;;;38.30;31.16;99602.59;1699939;84;21047;-72
2021/07/18 08:10:09;;;;;;;15.45;9.03;;;;;;;38.64;31.86;99602.56;1705634;84;21615;-71
2021/07/18 08:12:37;;;;;;;14.18;9.65;;;;;;;38.60;30.47;99598.93;1704678;84;21167;-71
2021/07/18 08:15:05;;;;;;;14.93;8.68;;;;;;;38.50;31.85;99607.05;1703221;83;21025;-71
2021/07/18 08:17:34;;;;;;;19.43;9.67;;;;;;;38.15;31.32;99611.45;1676061;84;21108;-70
2021/07/18 08:20:07;;;;;;;20.55;9.65;;;;;;;37.85;32.31;99600.73;1670369;84;21134;-69
2021/07/18 08:22:34;;;;;;;23.50;9.03;;;;;;;37.47;32.89;99592.62;1663350;84;21128;-73
2021/07/18 08:25:01;;;;;;;26.30;10.03;;;;;;;37.09;33.07;99593.58;1668662;84;21469;-73
2021/07/18 08:30:00;;;;;;;24.82;9.20;;;;;;;36.45;34.41;99592.69;1789660;79;22820;-74
2021/07/18 08:32:26;;;;;;;13.60;8.70;;;;;;;36.21;34.03;99595.95;1741194;80;21561;-74
2021/07/18 08:34:53;;;;;;;11.63;8.65;;;;;;;36.04;34.82;99589.78;1713326;83;21109;-74
2021/07/18 08:37:21;;;;;;;12.15;8.45;;;;;;;35.90;32.41;99591.08;1718957;81;21032;-72
2021/07/18 08:39:48;;;;;;;12.98;8.35;;;;;;;35.91;33.59;99592.22;1725213;82;21089;-74
2021/07/18 08:42:16;;;;;;;15.15;9.53;;;;;;;35.91;34.41;99596.84;1723980;83;21026;-73
2021/07/18 08:44:43;;;;;;;10.78;9.05;;;;;;;35.67;34.17;99585.84;1722226;82;21052;-75
2021/07/18 08:47:10;;;;;;;13.65;8.53;;;;;;;35.47;35.50;99592.13;1721449;83;21833;-73
2021/07/18 08:49:38;;;;;;;11.93;8.93;;;;;;;35.13;35.37;99595.84;1725159;81;21052;-75
2021/07/18 08:52:05;;;;;;;15.08;10.00;;;;;;;34.60;35.36;99595.91;1725632;81;21065;-74
2021/07/18 08:54:33;;;;;;;17.87;9.75;;;;;;;34.19;37.25;99593.27;1721510;83;21670;-75
2021/07/18 08:57:00;;;;;;;14.38;9.85;;;;;;;33.91;36.58;99593.66;1719915;81;21049;-75
2021/07/18 08:59:28;;;;;;;15.00;9.98;;;;;;;33.87;37.23;99586.98;1719391;83;21161;-75
2021/07/18 09:01:55;;;;;;;13.58;9.40;;;;;;;33.87;37.30;99586.98;1720823;83;21139;-75
2021/07/18 09:04:22;;;;;;;10.68;9.33;;;;;;;33.98;36.43;99580.81;1720189;81;21117;-75
2021/07/18 09:06:51;;;;;;;12.20;9.33;;;;;;;34.27;37.09;99575.73;1720885;82;21069;-75
2021/07/18 09:09:21;;;;;;;12.82;9.45;;;;;;;34.55;36.28;99571.66;1713211;81;21045;-77
2021/07/18 09:11:58;;;;;;;;;;;;;;;34.83;37.92;99572.52;1717796;81;21664;-76
2021/07/18 09:14:35;;;;;;;11.53;9.48;;;;;;;35.21;37.13;99570.91;1724308;83;20202;-78
2021/07/18 09:17:05;;;;;;;15.00;9.70;;;;;;;35.75;35.57;99570.14;1731127;80;21002;-74
2021/07/18 09:19:34;;;;;;;13.93;8.73;;;;;;;36.20;34.02;99569.63;1725559;83;21463;-74
2021/07/18 09:22:11;;;;;;;11.38;9.08;;;;;;;36.51;33.60;99563.78;1723888;83;21166;-76
2021/07/18 09:24:48;;;;;;;11.10;8.13;;;;;;;36.72;32.60;99565.08;1726929;81;21108;-77
2021/07/18 09:27:36;;;;;;;15.53;7.62;;;;;;;36.99;30.90;99563.67;1732549;82;21069;-75
2021/07/18 09:30:15;;;;;;;11.88;8.30;;;;;;;37.20;31.25;99568.51;1726154;82;21073;-74
2021/07/18 09:32:46;;;;;;;13.30;8.80;;;;;;;37.45;30.18;99568.70;1724444;81;21026;-76
2021/07/18 09:35:17;;;;;;;8.68;7.20;;;;;;;37.61;30.48;99563.80;1705571;82;22091;-75
2021/07/18 09:37:47;;;;;;;10.20;6.37;;;;;;;37.94;30.10;99566.25;1727137;82;21086;-74
2021/07/18 09:40:17;;;;;;;;;;;;;;;38.18;29.26;99567.78;1723797;82;21132;-77
2021/07/18 09:42:49;;;;;;;10.48;6.55;;;;;;;38.35;28.39;99566.40;1668796;85;20424;-76
2021/07/18 09:45:24;;;;;;;10.88;6.78;;;;;;;38.59;27.20;99556.02;1717976;83;21045;-76
2021/07/18 09:48:07;;;;;;;8.93;6.37;;;;;;;38.77;26.37;99553.50;1715389;83;21113;-76
2021/07/18 09:50:39;;;;;;;15.30;6.72;;;;;;;38.92;26.51;99545.98;1717963;83;21187;-75
2021/07/18 09:53:12;;;;;;;;;;;;;;;39.01;25.51;99548.56;1720646;82;21124;-75
2021/07/18 09:55:56;;;;;;;16.57;6.00;;;;;;;39.20;25.09;99555.09;1666026;85;20163;-75
2021/07/18 09:58:23;;;;;;;15.75;6.67;;;;;;;39.40;25.17;99552.58;1707576;83;21580;-79
2021/07/18 10:00:50;;;;;;;14.00;6.22;;;;;;;39.56;24.99;99541.16;1718244;83;21632;-77
2021/07/18 10:03:22;;;;;;;14.80;6.58;;;;;;;39.68;23.53;99545.11;1717229;83;21504;-75
2021/07/18 10:05:46;;;;;;;12.97;6.00;;;;;;;39.84;24.10;99542.80;1716890;83;21092;-74
2021/07/18 10:08:14;;;;;;;10.72;5.83;;;;;;;40.16;24.26;99544.67;1716659;83;21178;-75
2021/07/18 10:10:41;;;;;;;10.72;6.20;;;;;;;40.43;24.34;99550.66;1718234;82;21041;-76
2021/07/18 10:13:08;;;;;;;7.53;6.22;;;;;;;40.53;23.86;99542.42;1717334;83;21057;-75
2021/07/18 10:15:37;;;;;;;11.50;6.20;;;;;;;40.52;24.16;99542.16;1716419;83;21121;-75
2021/07/18 10:18:05;;;;;;;17.35;6.35;;;;;;;40.45;24.09;99541.58;1716571;83;21548;-74
2021/07/18 10:20:32;;;;;;;10.72;7.30;;;;;;;40.48;23.47;99551.51;1677811;84;21026;-76
2021/07/18 10:22:59;;;;;;;10.65;7.42;;;;;;;40.28;24.93;99540.36;1681295;84;21551;-77
2021/07/18 10:25:26;;;;;;;13.60;7.58;;;;;;;39.71;25.34;99544.61;1681289;84;21100;-77
2021/07/18 10:27:53;;;;;;;11.97;8.13;;;;;;;39.51;26.47;99541.67;1717871;83;21081;-77
2021/07/18 10:30:21;;;;;;;12.28;7.40;;;;;;;39.54;26.56;99541.14;1722751;82;21055;-76
2021/07/18 10:32:49;;;;;;;14.20;7.97;;;;;;;39.46;26.63;99534.72;1724587;81;21124;-75
2021/07/18 10:35:16;;;;;;;17.30;8.65;;;;;;;39.42;26.58;99543.52;1723575;81;21065;-76
2021/07/18 10:37:44;;;;;;;14.75;8.48;;;;;;;39.31;27.88;99544.47;1727663;82;21509;-74
2021/07/18 10:40:17;;;;;;;13.20;7.47;;;;;;;39.30;28.50;99535.94;1690141;84;21163;-78
2021/07/18 10:42:44;;;;;;;15.38;8.65;;;;;;;39.31;28.47;99529.33;1690945;84;21005;-77
2021/07/18 10:45:24;;;;;;;14.58;7.60;;;;;;;39.12;28.47;99534.38;1673870;84;21052;-76
2021/07/18 10:48:00;;;;;;;12.35;8.13;;;;;;;39.11;28.58;99534.07;1664777;84;21335;-79
2021/07/18 10:50:48;;;;;;;12.60;8.00;;;;;;;39.26;28.44;99534.80;1659103;86;21107;-78
2021/07/18 10:53:26;;;;;;;17.60;9.53;;;;;;;39.33;27.85;99518.06;1662339;86;22123;-77
2021/07/18 10:55:55;;;;;;;13.58;7.55;;;;;;;39.37;27.89;99514.55;1652787;86;22257;-75
2021/07/18 10:58:45;;;;;;;17.12;9.73;;;;;;;39.55;27.52;99515.23;1691010;84;21160;-75
2021/07/18 11:01:33;;;;;;;21.77;16.37;;;;;;;39.56;26.64;99514.98;1690644;84;21588;-78
2021/07/18 11:04:04;;;;;;;14.18;7.90;;;;;;;39.57;26.23;99514.44;1690604;84;22010;-75
2021/07/18 11:06:37;;;;;;;14.20;7.50;;;;;;;39.74;26.79;99515.14;1690429;84;21076;-76
2021/07/18 11:09:18;;;;;;;10.00;7.40;;;;;;;39.70;26.71;99515.38;1690437;84;21157;-77
2021/07/18 11:11:55;;;;;;;44.20;10.30;;;;;;;39.57;26.34;99511.16;1690694;84;21057;-76
2021/07/18 11:14:36;;;;;;;32.30;8.95;;;;;;;39.27;26.31;99511.66;1662834;86;21062;-76
2021/07/18 11:17:08;;;;;;;15.85;7.87;;;;;;;39.19;26.24;99501.12;1649629;86;21054;-78
2021/07/18 11:19:45;;;;;;;12.00;7.40;;;;;;;39.18;26.55;99500.83;1691246;84;21174;-76
2021/07/18 11:22:14;;;;;;;26.00;9.18;;;;;;;39.25;27.07;99490.43;1690157;84;21059;-79
2021/07/18 11:24:56;;;;;;;15.98;8.00;;;;;;;39.26;27.02;99496.23;1690056;84;21587;-76
2021/07/18 11:27:34;;;;;;;14.83;8.18;;;;;;;39.09;27.45;99496.88;1690562;84;21092;-77
2021/07/18 11:30:07;;;;;;;14.65;8.20;;;;;;;38.80;28.10;99495.73;1685901;84;21080;-77